sensor_id;sensor_type;location;lat;lon;timestamp;P1;durP1;ratioP1;P2;durP2;ratioP2
59972;SDS011;55298;-36.624;-64.282;2023-06-19T00:00:46;11.38;;;8.13;;
59972;SDS011;55298;-36.624;-64.282;2023-06-19T00:03:13;8.65;;;7.57;;
59972;SDS011;55298;-36.624;-64.282;2023-06-19T00:05:42;10.57;;;8.05;;
59972;SDS011;55298;-36.624;-64.282;2023-06-19T00:08:10;7.70;;;6.90;;
59972;SDS011;55298;-36.624;-64.282;2023-06-19T00:10:38;13.13;;;7.13;;
59972;SDS011;55298;-36.624;-64.282;2023-06-19T00:13:06;8.48;;;7.53;;
59972;SDS011;55298;-36.624;-64.282;2023-06-19T00:15:34;9.00;;;6.55;;
59972;SDS011;55298;-36.624;-64.282;2023-06-19T00:18:02;9.77;;;7.13;;
59972;SDS011;55298;-36.624;-64.282;2023-06-19T00:20:32;10.77;;;7.35;;
59972;SDS011;55298;-36.624;-64.282;2023-06-19T00:23:01;7.40;;;6.70;;
59972;SDS011;55298;-36.624;-64.282;2023-06-19T00:25:29;12.38;;;7.15;;
59972;SDS011;55298;-36.624;-64.282;2023-06-19T00:27:57;9.45;;;7.50;;
59972;SDS011;55298;-36.624;-64.282;2023-06-19T00:30:26;10.68;;;6.88;;
59972;SDS011;55298;-36.624;-64.282;2023-06-19T00:32:58;9.23;;;6.18;;
59972;SDS011;55298;-36.624;-64.282;2023-06-19T00:35:28;6.75;;;6.05;;
59972;SDS011;55298;-36.624;-64.282;2023-06-19T00:37:56;9.25;;;6.78;;
59972;SDS011;55298;-36.624;-64.282;2023-06-19T00:40:28;9.50;;;6.38;;
59972;SDS011;55298;-36.624;-64.282;2023-06-19T00:42:58;7.72;;;6.13;;
59972;SDS011;55298;-36.624;-64.282;2023-06-19T00:45:26;8.27;;;6.25;;
59972;SDS011;55298;-36.624;-64.282;2023-06-19T00:47:55;8.93;;;6.07;;
59972;SDS011;55298;-36.624;-64.282;2023-06-19T00:50:24;11.55;;;7.13;;
59972;SDS011;55298;-36.624;-64.282;2023-06-19T00:52:56;6.82;;;6.13;;
59972;SDS011;55298;-36.624;-64.282;2023-06-19T00:55:26;8.32;;;6.35;;
59972;SDS011;55298;-36.624;-64.282;2023-06-19T00:57:55;9.18;;;6.28;;
59972;SDS011;55298;-36.624;-64.282;2023-06-19T01:00:25;11.68;;;6.32;;
59972;SDS011;55298;-36.624;-64.282;2023-06-19T01:02:56;7.75;;;6.28;;
59972;SDS011;55298;-36.624;-64.282;2023-06-19T01:05:25;10.07;;;7.10;;
59972;SDS011;55298;-36.624;-64.282;2023-06-19T01:07:59;8.23;;;6.60;;
59972;SDS011;55298;-36.624;-64.282;2023-06-19T01:10:36;8.80;;;6.32;;
59972;SDS011;55298;-36.624;-64.282;2023-06-19T01:13:15;9.65;;;6.13;;
59972;SDS011;55298;-36.624;-64.282;2023-06-19T01:15:55;10.18;;;6.35;;
59972;SDS011;55298;-36.624;-64.282;2023-06-19T01:18:25;9.73;;;6.90;;
59972;SDS011;55298;-36.624;-64.282;2023-06-19T01:20:54;10.23;;;6.70;;
59972;SDS011;55298;-36.624;-64.282;2023-06-19T01:23:21;7.97;;;6.50;;
59972;SDS011;55298;-36.624;-64.282;2023-06-19T01:25:52;7.10;;;6.40;;
59972;SDS011;55298;-36.624;-64.282;2023-06-19T01:28:20;14.40;;;6.90;;
59972;SDS011;55298;-36.624;-64.282;2023-06-19T01:30:48;8.95;;;7.50;;
59972;SDS011;55298;-36.624;-64.282;2023-06-19T01:33:18;8.00;;;7.20;;
59972;SDS011;55298;-36.624;-64.282;2023-06-19T01:35:51;7.93;;;7.13;;
59972;SDS011;55298;-36.624;-64.282;2023-06-19T01:38:21;7.85;;;7.07;;
59972;SDS011;55298;-36.624;-64.282;2023-06-19T01:40:52;9.13;;;7.38;;
59972;SDS011;55298;-36.624;-64.282;2023-06-19T01:43:22;12.93;;;7.80;;
59972;SDS011;55298;-36.624;-64.282;2023-06-19T01:45:52;12.23;;;7.72;;
59972;SDS011;55298;-36.624;-64.282;2023-06-19T01:48:21;14.13;;;8.55;;
59972;SDS011;55298;-36.624;-64.282;2023-06-19T01:50:50;10.07;;;8.23;;
59972;SDS011;55298;-36.624;-64.282;2023-06-19T01:53:18;12.25;;;8.27;;
59972;SDS011;55298;-36.624;-64.282;2023-06-19T01:55:45;10.38;;;8.32;;
59972;SDS011;55298;-36.624;-64.282;2023-06-19T01:58:13;9.75;;;8.30;;
59972;SDS011;55298;-36.624;-64.282;2023-06-19T02:00:41;11.20;;;7.93;;
59972;SDS011;55298;-36.624;-64.282;2023-06-19T02:03:10;8.80;;;7.13;;
59972;SDS011;55298;-36.624;-64.282;2023-06-19T02:05:38;10.52;;;7.40;;
59972;SDS011;55298;-36.624;-64.282;2023-06-19T02:08:05;10.95;;;8.30;;
59972;SDS011;55298;-36.624;-64.282;2023-06-19T02:10:33;8.63;;;7.60;;
59972;SDS011;55298;-36.624;-64.282;2023-06-19T02:13:01;11.65;;;10.43;;
59972;SDS011;55298;-36.624;-64.282;2023-06-19T02:15:30;9.02;;;6.85;;
59972;SDS011;55298;-36.624;-64.282;2023-06-19T02:18:05;10.40;;;9.38;;
59972;SDS011;55298;-36.624;-64.282;2023-06-19T02:20:35;9.60;;;8.00;;
59972;SDS011;55298;-36.624;-64.282;2023-06-19T02:23:04;11.05;;;9.00;;
59972;SDS011;55298;-36.624;-64.282;2023-06-19T02:25:31;12.40;;;8.48;;
59972;SDS011;55298;-36.624;-64.282;2023-06-19T02:28:01;8.65;;;7.22;;
59972;SDS011;55298;-36.624;-64.282;2023-06-19T02:30:29;8.15;;;7.35;;
59972;SDS011;55298;-36.624;-64.282;2023-06-19T02:32:59;8.73;;;7.90;;
59972;SDS011;55298;-36.624;-64.282;2023-06-19T02:35:30;8.57;;;6.40;;
59972;SDS011;55298;-36.624;-64.282;2023-06-19T02:37:58;10.77;;;6.70;;
59972;SDS011;55298;-36.624;-64.282;2023-06-19T02:40:26;7.45;;;6.00;;
59972;SDS011;55298;-36.624;-64.282;2023-06-19T02:42:56;10.65;;;6.13;;
59972;SDS011;55298;-36.624;-64.282;2023-06-19T02:45:25;7.15;;;6.45;;
59972;SDS011;55298;-36.624;-64.282;2023-06-19T02:47:53;10.52;;;6.13;;
59972;SDS011;55298;-36.624;-64.282;2023-06-19T02:50:21;8.80;;;6.13;;
59972;SDS011;55298;-36.624;-64.282;2023-06-19T02:52:49;8.48;;;6.50;;
59972;SDS011;55298;-36.624;-64.282;2023-06-19T02:55:16;16.88;;;7.28;;
59972;SDS011;55298;-36.624;-64.282;2023-06-19T02:57:44;11.10;;;6.47;;
59972;SDS011;55298;-36.624;-64.282;2023-06-19T03:00:13;7.82;;;5.65;;
59972;SDS011;55298;-36.624;-64.282;2023-06-19T03:02:43;7.18;;;5.55;;
59972;SDS011;55298;-36.624;-64.282;2023-06-19T03:05:15;10.60;;;5.72;;
59972;SDS011;55298;-36.624;-64.282;2023-06-19T03:07:44;7.85;;;5.63;;
59972;SDS011;55298;-36.624;-64.282;2023-06-19T03:12:41;13.00;;;5.63;;
59972;SDS011;55298;-36.624;-64.282;2023-06-19T03:15:10;5.93;;;5.30;;
59972;SDS011;55298;-36.624;-64.282;2023-06-19T03:17:46;6.07;;;5.00;;
59972;SDS011;55298;-36.624;-64.282;2023-06-19T03:20:14;9.80;;;5.50;;
59972;SDS011;55298;-36.624;-64.282;2023-06-19T03:22:45;8.00;;;5.30;;
59972;SDS011;55298;-36.624;-64.282;2023-06-19T03:25:14;7.13;;;5.05;;
59972;SDS011;55298;-36.624;-64.282;2023-06-19T03:28:00;10.93;;;6.40;;
59972;SDS011;55298;-36.624;-64.282;2023-06-19T03:30:29;9.00;;;5.68;;
59972;SDS011;55298;-36.624;-64.282;2023-06-19T03:32:57;7.35;;;6.03;;
59972;SDS011;55298;-36.624;-64.282;2023-06-19T03:35:25;6.75;;;6.13;;
59972;SDS011;55298;-36.624;-64.282;2023-06-19T03:37:54;8.40;;;6.55;;
59972;SDS011;55298;-36.624;-64.282;2023-06-19T03:40:24;7.70;;;5.75;;
59972;SDS011;55298;-36.624;-64.282;2023-06-19T03:42:52;6.45;;;5.85;;
59972;SDS011;55298;-36.624;-64.282;2023-06-19T03:45:19;6.85;;;5.78;;
59972;SDS011;55298;-36.624;-64.282;2023-06-19T03:47:47;6.32;;;5.72;;
59972;SDS011;55298;-36.624;-64.282;2023-06-19T03:50:15;7.07;;;5.65;;
59972;SDS011;55298;-36.624;-64.282;2023-06-19T03:52:43;11.18;;;5.82;;
59972;SDS011;55298;-36.624;-64.282;2023-06-19T03:55:12;8.38;;;7.13;;
59972;SDS011;55298;-36.624;-64.282;2023-06-19T03:57:39;6.80;;;6.20;;
59972;SDS011;55298;-36.624;-64.282;2023-06-19T04:00:07;7.63;;;5.93;;
59972;SDS011;55298;-36.624;-64.282;2023-06-19T04:02:38;8.85;;;5.80;;
59972;SDS011;55298;-36.624;-64.282;2023-06-19T04:05:07;10.40;;;5.78;;
59972;SDS011;55298;-36.624;-64.282;2023-06-19T04:07:36;6.60;;;6.00;;
59972;SDS011;55298;-36.624;-64.282;2023-06-19T04:10:04;7.75;;;6.18;;
59972;SDS011;55298;-36.624;-64.282;2023-06-19T04:12:38;7.72;;;5.65;;
59972;SDS011;55298;-36.624;-64.282;2023-06-19T04:15:08;8.93;;;5.70;;
59972;SDS011;55298;-36.624;-64.282;2023-06-19T04:17:40;13.50;;;6.72;;
59972;SDS011;55298;-36.624;-64.282;2023-06-19T04:20:12;6.30;;;5.40;;
59972;SDS011;55298;-36.624;-64.282;2023-06-19T04:22:44;7.75;;;6.18;;
59972;SDS011;55298;-36.624;-64.282;2023-06-19T04:25:20;12.25;;;6.10;;
59972;SDS011;55298;-36.624;-64.282;2023-06-19T04:28:08;6.97;;;5.32;;
59972;SDS011;55298;-36.624;-64.282;2023-06-19T04:30:35;6.45;;;5.85;;
59972;SDS011;55298;-36.624;-64.282;2023-06-19T04:33:05;9.30;;;5.57;;
59972;SDS011;55298;-36.624;-64.282;2023-06-19T04:35:34;6.55;;;5.93;;
59972;SDS011;55298;-36.624;-64.282;2023-06-19T04:38:06;6.90;;;5.90;;
59972;SDS011;55298;-36.624;-64.282;2023-06-19T04:40:34;6.38;;;5.90;;
59972;SDS011;55298;-36.624;-64.282;2023-06-19T04:43:02;10.57;;;6.25;;
59972;SDS011;55298;-36.624;-64.282;2023-06-19T04:45:31;8.32;;;6.72;;
59972;SDS011;55298;-36.624;-64.282;2023-06-19T04:47:59;6.55;;;6.03;;
59972;SDS011;55298;-36.624;-64.282;2023-06-19T04:50:28;6.15;;;5.68;;
59972;SDS011;55298;-36.624;-64.282;2023-06-19T04:52:56;7.63;;;5.88;;
59972;SDS011;55298;-36.624;-64.282;2023-06-19T04:55:24;7.60;;;6.13;;
59972;SDS011;55298;-36.624;-64.282;2023-06-19T04:57:51;7.07;;;6.00;;
59972;SDS011;55298;-36.624;-64.282;2023-06-19T05:00:20;6.30;;;5.60;;
59972;SDS011;55298;-36.624;-64.282;2023-06-19T05:02:49;7.07;;;5.47;;
59972;SDS011;55298;-36.624;-64.282;2023-06-19T05:05:17;6.65;;;5.75;;
59972;SDS011;55298;-36.624;-64.282;2023-06-19T05:07:46;7.63;;;5.47;;
59972;SDS011;55298;-36.624;-64.282;2023-06-19T05:10:13;8.40;;;5.22;;
59972;SDS011;55298;-36.624;-64.282;2023-06-19T05:12:42;6.13;;;5.53;;
59972;SDS011;55298;-36.624;-64.282;2023-06-19T05:15:10;5.97;;;5.43;;
59972;SDS011;55298;-36.624;-64.282;2023-06-19T05:17:38;7.88;;;5.55;;
59972;SDS011;55298;-36.624;-64.282;2023-06-19T05:20:06;6.88;;;5.38;;
59972;SDS011;55298;-36.624;-64.282;2023-06-19T05:22:34;5.78;;;5.20;;
59972;SDS011;55298;-36.624;-64.282;2023-06-19T05:25:02;9.93;;;6.00;;
59972;SDS011;55298;-36.624;-64.282;2023-06-19T05:27:30;7.07;;;5.90;;
59972;SDS011;55298;-36.624;-64.282;2023-06-19T05:29:58;6.18;;;5.85;;
59972;SDS011;55298;-36.624;-64.282;2023-06-19T05:32:26;6.65;;;5.63;;
59972;SDS011;55298;-36.624;-64.282;2023-06-19T05:34:53;6.30;;;5.70;;
59972;SDS011;55298;-36.624;-64.282;2023-06-19T05:37:21;5.80;;;5.38;;
59972;SDS011;55298;-36.624;-64.282;2023-06-19T05:39:49;7.70;;;5.50;;
59972;SDS011;55298;-36.624;-64.282;2023-06-19T05:42:17;6.20;;;5.60;;
59972;SDS011;55298;-36.624;-64.282;2023-06-19T05:44:44;6.85;;;5.70;;
59972;SDS011;55298;-36.624;-64.282;2023-06-19T05:47:12;7.20;;;5.70;;
59972;SDS011;55298;-36.624;-64.282;2023-06-19T05:49:42;6.68;;;5.70;;
59972;SDS011;55298;-36.624;-64.282;2023-06-19T05:52:10;6.72;;;6.00;;
59972;SDS011;55298;-36.624;-64.282;2023-06-19T05:54:38;6.85;;;6.20;;
59972;SDS011;55298;-36.624;-64.282;2023-06-19T05:57:06;6.70;;;6.13;;
59972;SDS011;55298;-36.624;-64.282;2023-06-19T05:59:33;6.32;;;5.72;;
59972;SDS011;55298;-36.624;-64.282;2023-06-19T06:02:07;7.97;;;5.78;;
59972;SDS011;55298;-36.624;-64.282;2023-06-19T06:04:34;6.95;;;5.95;;
59972;SDS011;55298;-36.624;-64.282;2023-06-19T06:07:02;6.63;;;6.03;;
59972;SDS011;55298;-36.624;-64.282;2023-06-19T06:09:31;6.32;;;5.72;;
59972;SDS011;55298;-36.624;-64.282;2023-06-19T06:11:59;7.25;;;6.57;;
59972;SDS011;55298;-36.624;-64.282;2023-06-19T06:14:27;7.20;;;6.50;;
59972;SDS011;55298;-36.624;-64.282;2023-06-19T06:16:55;7.60;;;6.88;;
59972;SDS011;55298;-36.624;-64.282;2023-06-19T06:19:22;6.97;;;6.38;;
59972;SDS011;55298;-36.624;-64.282;2023-06-19T06:21:50;8.60;;;6.32;;
59972;SDS011;55298;-36.624;-64.282;2023-06-19T06:24:18;11.50;;;6.93;;
59972;SDS011;55298;-36.624;-64.282;2023-06-19T06:26:45;7.50;;;6.60;;
59972;SDS011;55298;-36.624;-64.282;2023-06-19T06:29:13;7.72;;;6.63;;
59972;SDS011;55298;-36.624;-64.282;2023-06-19T06:31:41;7.13;;;6.43;;
59972;SDS011;55298;-36.624;-64.282;2023-06-19T06:34:12;8.45;;;7.55;;
59972;SDS011;55298;-36.624;-64.282;2023-06-19T06:36:41;9.10;;;6.93;;
59972;SDS011;55298;-36.624;-64.282;2023-06-19T06:39:09;7.07;;;6.32;;
59972;SDS011;55298;-36.624;-64.282;2023-06-19T06:41:37;7.57;;;6.80;;
59972;SDS011;55298;-36.624;-64.282;2023-06-19T06:44:04;8.48;;;7.78;;
59972;SDS011;55298;-36.624;-64.282;2023-06-19T06:46:32;8.40;;;7.57;;
59972;SDS011;55298;-36.624;-64.282;2023-06-19T06:49:00;7.63;;;7.03;;
59972;SDS011;55298;-36.624;-64.282;2023-06-19T06:51:27;7.80;;;7.07;;
59972;SDS011;55298;-36.624;-64.282;2023-06-19T06:53:55;7.20;;;6.50;;
59972;SDS011;55298;-36.624;-64.282;2023-06-19T06:56:23;8.30;;;7.30;;
59972;SDS011;55298;-36.624;-64.282;2023-06-19T06:58:51;10.57;;;7.80;;
59972;SDS011;55298;-36.624;-64.282;2023-06-19T07:01:19;7.80;;;7.10;;
59972;SDS011;55298;-36.624;-64.282;2023-06-19T07:03:47;8.55;;;7.80;;
59972;SDS011;55298;-36.624;-64.282;2023-06-19T07:06:14;8.48;;;7.22;;
59972;SDS011;55298;-36.624;-64.282;2023-06-19T07:08:42;22.92;;;8.13;;
59972;SDS011;55298;-36.624;-64.282;2023-06-19T07:11:13;7.88;;;6.95;;
59972;SDS011;55298;-36.624;-64.282;2023-06-19T07:13:41;8.23;;;7.45;;
59972;SDS011;55298;-36.624;-64.282;2023-06-19T07:16:09;8.38;;;7.68;;
59972;SDS011;55298;-36.624;-64.282;2023-06-19T07:18:37;11.15;;;7.75;;
59972;SDS011;55298;-36.624;-64.282;2023-06-19T07:21:09;7.90;;;7.10;;
59972;SDS011;55298;-36.624;-64.282;2023-06-19T07:23:39;10.55;;;8.35;;
59972;SDS011;55298;-36.624;-64.282;2023-06-19T07:26:07;8.13;;;7.43;;
59972;SDS011;55298;-36.624;-64.282;2023-06-19T07:28:35;7.53;;;6.82;;
59972;SDS011;55298;-36.624;-64.282;2023-06-19T07:31:03;8.55;;;7.68;;
59972;SDS011;55298;-36.624;-64.282;2023-06-19T07:33:31;7.95;;;7.20;;
59972;SDS011;55298;-36.624;-64.282;2023-06-19T07:35:59;8.43;;;7.13;;
59972;SDS011;55298;-36.624;-64.282;2023-06-19T07:38:28;8.60;;;7.43;;
59972;SDS011;55298;-36.624;-64.282;2023-06-19T07:40:56;8.25;;;7.35;;
59972;SDS011;55298;-36.624;-64.282;2023-06-19T07:43:24;9.98;;;8.80;;
59972;SDS011;55298;-36.624;-64.282;2023-06-19T07:45:52;8.60;;;7.38;;
59972;SDS011;55298;-36.624;-64.282;2023-06-19T07:48:20;7.95;;;7.15;;
59972;SDS011;55298;-36.624;-64.282;2023-06-19T07:50:49;9.27;;;7.95;;
59972;SDS011;55298;-36.624;-64.282;2023-06-19T07:53:16;9.80;;;8.00;;
59972;SDS011;55298;-36.624;-64.282;2023-06-19T07:55:48;9.25;;;8.13;;
59972;SDS011;55298;-36.624;-64.282;2023-06-19T07:58:16;10.88;;;8.85;;
59972;SDS011;55298;-36.624;-64.282;2023-06-19T08:00:44;11.05;;;8.82;;
59972;SDS011;55298;-36.624;-64.282;2023-06-19T08:03:11;9.10;;;8.23;;
59972;SDS011;55298;-36.624;-64.282;2023-06-19T08:05:39;10.32;;;9.30;;
59972;SDS011;55298;-36.624;-64.282;2023-06-19T08:08:08;9.20;;;8.05;;
59972;SDS011;55298;-36.624;-64.282;2023-06-19T08:10:36;9.75;;;8.82;;
59972;SDS011;55298;-36.624;-64.282;2023-06-19T08:13:04;8.75;;;8.05;;
59972;SDS011;55298;-36.624;-64.282;2023-06-19T08:15:31;9.63;;;7.00;;
59972;SDS011;55298;-36.624;-64.282;2023-06-19T08:17:59;9.63;;;7.70;;
59972;SDS011;55298;-36.624;-64.282;2023-06-19T08:20:28;9.30;;;8.20;;
59972;SDS011;55298;-36.624;-64.282;2023-06-19T08:22:55;8.13;;;7.38;;
59972;SDS011;55298;-36.624;-64.282;2023-06-19T08:25:23;9.27;;;8.38;;
59972;SDS011;55298;-36.624;-64.282;2023-06-19T08:27:51;9.80;;;8.48;;
59972;SDS011;55298;-36.624;-64.282;2023-06-19T08:30:19;7.88;;;7.18;;
59972;SDS011;55298;-36.624;-64.282;2023-06-19T08:32:46;12.65;;;8.85;;
59972;SDS011;55298;-36.624;-64.282;2023-06-19T08:35:15;8.98;;;8.05;;
59972;SDS011;55298;-36.624;-64.282;2023-06-19T08:37:43;8.65;;;7.85;;
59972;SDS011;55298;-36.624;-64.282;2023-06-19T08:40:11;9.77;;;7.85;;
59972;SDS011;55298;-36.624;-64.282;2023-06-19T08:42:39;7.65;;;6.97;;
59972;SDS011;55298;-36.624;-64.282;2023-06-19T08:45:09;7.40;;;6.70;;
59972;SDS011;55298;-36.624;-64.282;2023-06-19T08:47:37;8.15;;;6.97;;
59972;SDS011;55298;-36.624;-64.282;2023-06-19T08:50:04;8.18;;;7.47;;
59972;SDS011;55298;-36.624;-64.282;2023-06-19T08:52:33;7.90;;;7.20;;
59972;SDS011;55298;-36.624;-64.282;2023-06-19T08:55:00;8.48;;;6.97;;
59972;SDS011;55298;-36.624;-64.282;2023-06-19T08:57:37;8.38;;;7.55;;
59972;SDS011;55298;-36.624;-64.282;2023-06-19T09:00:05;8.52;;;7.72;;
59972;SDS011;55298;-36.624;-64.282;2023-06-19T09:02:37;8.68;;;7.72;;
59972;SDS011;55298;-36.624;-64.282;2023-06-19T09:05:10;8.10;;;7.30;;
59972;SDS011;55298;-36.624;-64.282;2023-06-19T09:07:43;10.15;;;8.15;;
59972;SDS011;55298;-36.624;-64.282;2023-06-19T09:10:20;9.07;;;8.27;;
59972;SDS011;55298;-36.624;-64.282;2023-06-19T09:15:28;8.10;;;7.40;;
59972;SDS011;55298;-36.624;-64.282;2023-06-19T09:18:00;9.43;;;8.45;;
59972;SDS011;55298;-36.624;-64.282;2023-06-19T09:20:30;11.70;;;8.50;;
59972;SDS011;55298;-36.624;-64.282;2023-06-19T09:23:00;9.07;;;8.25;;
59972;SDS011;55298;-36.624;-64.282;2023-06-19T09:25:28;9.95;;;8.63;;
59972;SDS011;55298;-36.624;-64.282;2023-06-19T09:27:57;9.60;;;8.60;;
59972;SDS011;55298;-36.624;-64.282;2023-06-19T09:30:24;11.02;;;9.18;;
59972;SDS011;55298;-36.624;-64.282;2023-06-19T09:32:53;9.90;;;9.05;;
59972;SDS011;55298;-36.624;-64.282;2023-06-19T09:35:20;10.05;;;8.82;;
59972;SDS011;55298;-36.624;-64.282;2023-06-19T09:37:48;11.70;;;9.10;;
59972;SDS011;55298;-36.624;-64.282;2023-06-19T09:40:17;12.45;;;10.07;;
59972;SDS011;55298;-36.624;-64.282;2023-06-19T09:42:45;11.70;;;8.30;;
59972;SDS011;55298;-36.624;-64.282;2023-06-19T09:45:20;9.48;;;8.65;;
59972;SDS011;55298;-36.624;-64.282;2023-06-19T09:47:51;10.18;;;9.27;;
59972;SDS011;55298;-36.624;-64.282;2023-06-19T09:50:19;9.32;;;8.43;;
59972;SDS011;55298;-36.624;-64.282;2023-06-19T09:52:54;9.57;;;8.60;;
59972;SDS011;55298;-36.624;-64.282;2023-06-19T09:55:23;9.90;;;9.00;;
59972;SDS011;55298;-36.624;-64.282;2023-06-19T09:57:55;9.38;;;8.43;;
59972;SDS011;55298;-36.624;-64.282;2023-06-19T10:00:23;12.38;;;9.45;;
59972;SDS011;55298;-36.624;-64.282;2023-06-19T10:02:56;10.63;;;8.60;;
59972;SDS011;55298;-36.624;-64.282;2023-06-19T10:05:32;9.63;;;8.77;;
59972;SDS011;55298;-36.624;-64.282;2023-06-19T10:08:02;10.07;;;9.15;;
59972;SDS011;55298;-36.624;-64.282;2023-06-19T10:10:31;10.43;;;9.30;;
59972;SDS011;55298;-36.624;-64.282;2023-06-19T10:15:41;10.30;;;9.30;;
59972;SDS011;55298;-36.624;-64.282;2023-06-19T10:18:17;10.60;;;9.60;;
59972;SDS011;55298;-36.624;-64.282;2023-06-19T10:20:46;10.70;;;9.80;;
59972;SDS011;55298;-36.624;-64.282;2023-06-19T10:23:16;9.48;;;8.52;;
59972;SDS011;55298;-36.624;-64.282;2023-06-19T10:28:16;9.73;;;8.93;;
59972;SDS011;55298;-36.624;-64.282;2023-06-19T10:30:45;13.20;;;8.95;;
59972;SDS011;55298;-36.624;-64.282;2023-06-19T10:33:38;8.90;;;8.10;;
59972;SDS011;55298;-36.624;-64.282;2023-06-19T10:38:45;10.95;;;9.85;;
59972;SDS011;55298;-36.624;-64.282;2023-06-19T10:41:16;9.70;;;8.70;;
59972;SDS011;55298;-36.624;-64.282;2023-06-19T10:46:29;10.38;;;9.35;;
59972;SDS011;55298;-36.624;-64.282;2023-06-19T10:48:59;13.15;;;9.93;;
59972;SDS011;55298;-36.624;-64.282;2023-06-19T10:51:31;9.70;;;8.73;;
59972;SDS011;55298;-36.624;-64.282;2023-06-19T10:54:02;10.63;;;9.57;;
59972;SDS011;55298;-36.624;-64.282;2023-06-19T10:56:30;11.13;;;9.00;;
59972;SDS011;55298;-36.624;-64.282;2023-06-19T10:59:01;10.07;;;8.95;;
59972;SDS011;55298;-36.624;-64.282;2023-06-19T11:01:33;9.85;;;8.95;;
59972;SDS011;55298;-36.624;-64.282;2023-06-19T11:04:03;10.90;;;9.90;;
59972;SDS011;55298;-36.624;-64.282;2023-06-19T11:06:33;11.00;;;10.00;;
59972;SDS011;55298;-36.624;-64.282;2023-06-19T11:09:02;11.27;;;10.20;;
59972;SDS011;55298;-36.624;-64.282;2023-06-19T11:11:36;11.30;;;10.20;;
59972;SDS011;55298;-36.624;-64.282;2023-06-19T11:14:07;11.13;;;9.95;;
59972;SDS011;55298;-36.624;-64.282;2023-06-19T11:16:38;10.75;;;9.48;;
59972;SDS011;55298;-36.624;-64.282;2023-06-19T11:19:14;12.35;;;10.48;;
59972;SDS011;55298;-36.624;-64.282;2023-06-19T11:21:46;11.43;;;10.32;;
59972;SDS011;55298;-36.624;-64.282;2023-06-19T11:24:16;10.68;;;9.55;;
59972;SDS011;55298;-36.624;-64.282;2023-06-19T11:26:46;10.90;;;9.90;;
59972;SDS011;55298;-36.624;-64.282;2023-06-19T11:29:16;10.50;;;9.60;;
59972;SDS011;55298;-36.624;-64.282;2023-06-19T11:31:49;11.50;;;10.38;;
59972;SDS011;55298;-36.624;-64.282;2023-06-19T11:34:19;12.70;;;9.90;;
59972;SDS011;55298;-36.624;-64.282;2023-06-19T11:36:57;10.90;;;9.40;;
59972;SDS011;55298;-36.624;-64.282;2023-06-19T11:39:26;14.43;;;9.88;;
59972;SDS011;55298;-36.624;-64.282;2023-06-19T11:41:55;10.70;;;9.65;;
59972;SDS011;55298;-36.624;-64.282;2023-06-19T11:44:27;11.13;;;10.02;;
59972;SDS011;55298;-36.624;-64.282;2023-06-19T11:46:57;13.93;;;11.52;;
59972;SDS011;55298;-36.624;-64.282;2023-06-19T11:49:28;13.82;;;12.40;;
59972;SDS011;55298;-36.624;-64.282;2023-06-19T11:52:01;15.43;;;13.77;;
59972;SDS011;55298;-36.624;-64.282;2023-06-19T11:54:29;14.75;;;13.23;;
59972;SDS011;55298;-36.624;-64.282;2023-06-19T11:56:57;12.60;;;11.40;;
59972;SDS011;55298;-36.624;-64.282;2023-06-19T11:59:25;11.85;;;10.77;;
59972;SDS011;55298;-36.624;-64.282;2023-06-19T12:01:56;10.98;;;9.95;;
59972;SDS011;55298;-36.624;-64.282;2023-06-19T12:04:26;12.02;;;10.80;;
59972;SDS011;55298;-36.624;-64.282;2023-06-19T12:06:54;12.60;;;9.93;;
59972;SDS011;55298;-36.624;-64.282;2023-06-19T12:09:23;10.68;;;9.57;;
59972;SDS011;55298;-36.624;-64.282;2023-06-19T12:11:51;13.35;;;9.07;;
59972;SDS011;55298;-36.624;-64.282;2023-06-19T12:14:19;10.77;;;9.50;;
59972;SDS011;55298;-36.624;-64.282;2023-06-19T12:16:48;11.55;;;10.45;;
59972;SDS011;55298;-36.624;-64.282;2023-06-19T12:19:15;10.80;;;9.73;;
59972;SDS011;55298;-36.624;-64.282;2023-06-19T12:21:43;10.73;;;9.63;;
59972;SDS011;55298;-36.624;-64.282;2023-06-19T12:24:11;11.88;;;10.73;;
59972;SDS011;55298;-36.624;-64.282;2023-06-19T12:26:39;10.82;;;9.75;;
59972;SDS011;55298;-36.624;-64.282;2023-06-19T12:29:06;11.80;;;10.75;;
59972;SDS011;55298;-36.624;-64.282;2023-06-19T12:31:34;11.85;;;10.43;;
59972;SDS011;55298;-36.624;-64.282;2023-06-19T12:34:03;15.60;;;10.05;;
59972;SDS011;55298;-36.624;-64.282;2023-06-19T12:36:32;10.65;;;9.63;;
59972;SDS011;55298;-36.624;-64.282;2023-06-19T12:39:04;21.03;;;18.80;;
59972;SDS011;55298;-36.624;-64.282;2023-06-19T12:41:40;10.98;;;9.07;;
59972;SDS011;55298;-36.624;-64.282;2023-06-19T12:44:08;10.55;;;9.52;;
59972;SDS011;55298;-36.624;-64.282;2023-06-19T12:46:36;11.15;;;9.07;;
59972;SDS011;55298;-36.624;-64.282;2023-06-19T12:49:05;10.85;;;9.35;;
59972;SDS011;55298;-36.624;-64.282;2023-06-19T12:51:33;10.73;;;9.13;;
59972;SDS011;55298;-36.624;-64.282;2023-06-19T12:54:02;13.13;;;11.65;;
59972;SDS011;55298;-36.624;-64.282;2023-06-19T12:56:32;12.32;;;11.10;;
59972;SDS011;55298;-36.624;-64.282;2023-06-19T12:59:02;12.70;;;11.45;;
59972;SDS011;55298;-36.624;-64.282;2023-06-19T13:01:30;14.93;;;11.30;;
59972;SDS011;55298;-36.624;-64.282;2023-06-19T13:03:57;11.73;;;10.65;;
59972;SDS011;55298;-36.624;-64.282;2023-06-19T13:06:25;12.55;;;9.95;;
59972;SDS011;55298;-36.624;-64.282;2023-06-19T13:08:53;11.65;;;9.93;;
59972;SDS011;55298;-36.624;-64.282;2023-06-19T13:11:22;13.85;;;11.38;;
59972;SDS011;55298;-36.624;-64.282;2023-06-19T13:14:02;13.90;;;9.52;;
59972;SDS011;55298;-36.624;-64.282;2023-06-19T13:16:41;12.77;;;10.98;;
59972;SDS011;55298;-36.624;-64.282;2023-06-19T13:19:11;11.75;;;10.55;;
59972;SDS011;55298;-36.624;-64.282;2023-06-19T13:21:41;13.50;;;9.90;;
59972;SDS011;55298;-36.624;-64.282;2023-06-19T13:24:09;12.50;;;9.85;;
59972;SDS011;55298;-36.624;-64.282;2023-06-19T13:26:37;11.77;;;10.38;;
59972;SDS011;55298;-36.624;-64.282;2023-06-19T13:29:05;11.65;;;10.43;;
59972;SDS011;55298;-36.624;-64.282;2023-06-19T13:31:33;13.90;;;11.10;;
59972;SDS011;55298;-36.624;-64.282;2023-06-19T13:34:02;12.63;;;9.68;;
59972;SDS011;55298;-36.624;-64.282;2023-06-19T13:36:31;11.60;;;10.23;;
59972;SDS011;55298;-36.624;-64.282;2023-06-19T13:38:59;10.88;;;9.68;;
59972;SDS011;55298;-36.624;-64.282;2023-06-19T13:41:28;12.80;;;10.38;;
59972;SDS011;55298;-36.624;-64.282;2023-06-19T13:43:58;10.95;;;9.30;;
59972;SDS011;55298;-36.624;-64.282;2023-06-19T13:46:27;10.77;;;9.23;;
59972;SDS011;55298;-36.624;-64.282;2023-06-19T13:48:57;15.85;;;10.70;;
59972;SDS011;55298;-36.624;-64.282;2023-06-19T13:51:26;11.40;;;10.15;;
59972;SDS011;55298;-36.624;-64.282;2023-06-19T13:53:54;10.73;;;9.68;;
59972;SDS011;55298;-36.624;-64.282;2023-06-19T13:56:21;11.20;;;10.10;;
59972;SDS011;55298;-36.624;-64.282;2023-06-19T13:58:50;11.50;;;9.07;;
59972;SDS011;55298;-36.624;-64.282;2023-06-19T14:01:18;10.88;;;9.10;;
59972;SDS011;55298;-36.624;-64.282;2023-06-19T14:03:46;10.27;;;9.38;;
59972;SDS011;55298;-36.624;-64.282;2023-06-19T14:06:13;10.23;;;9.23;;
59972;SDS011;55298;-36.624;-64.282;2023-06-19T14:08:43;10.15;;;9.15;;
59972;SDS011;55298;-36.624;-64.282;2023-06-19T14:11:15;9.65;;;8.50;;
59972;SDS011;55298;-36.624;-64.282;2023-06-19T14:13:46;10.80;;;8.93;;
59972;SDS011;55298;-36.624;-64.282;2023-06-19T14:16:14;10.07;;;9.18;;
59972;SDS011;55298;-36.624;-64.282;2023-06-19T14:18:43;13.32;;;9.80;;
59972;SDS011;55298;-36.624;-64.282;2023-06-19T14:21:11;10.68;;;9.65;;
59972;SDS011;55298;-36.624;-64.282;2023-06-19T14:23:39;13.85;;;9.95;;
59972;SDS011;55298;-36.624;-64.282;2023-06-19T14:26:10;11.00;;;9.98;;
59972;SDS011;55298;-36.624;-64.282;2023-06-19T14:28:38;10.30;;;9.23;;